createdAt,value
2023-02-18T00:02:02.658Z,-2.07
2023-02-18T00:04:32.366Z,-2.11
2023-02-18T00:07:01.256Z,-2.12
2023-02-18T00:09:31.089Z,-2.14
2023-02-18T00:11:59.976Z,-2.15
2023-02-18T00:14:28.688Z,-2.14
2023-02-18T00:16:57.376Z,-2.14
2023-02-18T00:19:26.113Z,-2.16
2023-02-18T00:21:54.683Z,-2.18
2023-02-18T00:24:23.516Z,-2.20
2023-02-18T00:26:52.343Z,-2.21
2023-02-18T00:29:21.161Z,-2.24
2023-02-18T00:31:52.399Z,-2.27
2023-02-18T00:34:21.556Z,-2.30
2023-02-18T00:36:50.087Z,-2.32
2023-02-18T00:39:18.638Z,-2.34
2023-02-18T00:41:47.320Z,-2.34
2023-02-18T00:44:17.397Z,-2.33
2023-02-18T00:46:48.486Z,-2.32
2023-02-18T00:49:17.355Z,-2.32
2023-02-18T00:51:45.963Z,-2.33
2023-02-18T00:54:14.676Z,-2.34
2023-02-18T00:56:43.184Z,-2.33
2023-02-18T00:59:13.829Z,-2.34
2023-02-18T01:01:42.456Z,-2.36
2023-02-18T01:04:14.574Z,-2.37
2023-02-18T01:06:45.184Z,-2.39
2023-02-18T01:09:14.005Z,-2.40
2023-02-18T01:11:42.868Z,-2.43
2023-02-18T01:14:11.513Z,-2.43
2023-02-18T01:16:41.936Z,-2.42
2023-02-18T01:19:10.874Z,-2.43
2023-02-18T01:21:40.063Z,-2.43
2023-02-18T01:24:09.773Z,-2.44
2023-02-18T01:26:38.522Z,-2.45
2023-02-18T01:29:07.162Z,-2.45
2023-02-18T01:31:36.335Z,-2.46
2023-02-18T01:34:06.498Z,-2.47
2023-02-18T01:36:35.412Z,-2.47
2023-02-18T01:39:06.226Z,-2.49
2023-02-18T01:41:35.722Z,-2.50
2023-02-18T01:44:18.761Z,-2.52
2023-02-18T01:46:47.445Z,-2.53
2023-02-18T01:49:24.157Z,-2.53
2023-02-18T01:51:56.509Z,-2.54
2023-02-18T01:54:40.001Z,-2.54
2023-02-18T01:57:31.748Z,-2.54
2023-02-18T02:00:04.243Z,-2.53
2023-02-18T02:02:45.789Z,-2.53
2023-02-18T02:05:14.986Z,-2.53
2023-02-18T02:07:43.753Z,-2.53
2023-02-18T02:10:13.294Z,-2.53
2023-02-18T02:13:05.568Z,-2.52
2023-02-18T02:15:38.966Z,-2.52
2023-02-18T02:18:09.857Z,-2.50
2023-02-18T02:21:01.830Z,-2.50
2023-02-18T02:23:46.158Z,-2.50
2023-02-18T02:26:17.617Z,-2.49
2023-02-18T02:29:10.218Z,-2.48
2023-02-18T02:31:51.137Z,-2.48
2023-02-18T02:34:38.402Z,-2.48
2023-02-18T02:37:07.179Z,-2.48
2023-02-18T02:39:52.651Z,-2.46
2023-02-18T02:42:28.937Z,-2.45
2023-02-18T02:45:06.461Z,-2.46
2023-02-18T02:47:47.059Z,-2.46
2023-02-18T02:50:43.796Z,-2.47
2023-02-18T02:53:20.556Z,-2.44
2023-02-18T02:55:49.404Z,-2.41
2023-02-18T02:58:20.234Z,-2.41
2023-02-18T03:01:21.270Z,-2.42
2023-02-18T03:04:04.934Z,-2.42
2023-02-18T03:06:48.003Z,-2.41
2023-02-18T03:09:17.641Z,-2.40
2023-02-18T03:12:06.867Z,-2.39
2023-02-18T03:14:49.446Z,-2.41
2023-02-18T03:17:30.710Z,-2.41
2023-02-18T03:20:20.568Z,-2.43
2023-02-18T03:22:49.214Z,-2.42
2023-02-18T03:25:18.390Z,-2.41
2023-02-18T03:27:51.528Z,-2.42
2023-02-18T03:30:26.074Z,-2.43
2023-02-18T03:32:58.536Z,-2.43
2023-02-18T03:35:29.135Z,-2.42
2023-02-18T03:38:20.647Z,-2.42
2023-02-18T03:40:49.375Z,-2.44
2023-02-18T03:43:18.778Z,-2.44
2023-02-18T03:45:47.982Z,-2.44
2023-02-18T03:48:17.005Z,-2.44
2023-02-18T03:50:46.442Z,-2.43
2023-02-18T03:53:17.961Z,-2.43
2023-02-18T03:55:47.081Z,-2.44
2023-02-18T03:58:15.511Z,-2.43
2023-02-18T04:00:44.325Z,-2.42
2023-02-18T04:03:13.603Z,-2.40
2023-02-18T04:05:44.797Z,-2.38
2023-02-18T04:08:13.836Z,-2.38
2023-02-18T04:10:42.539Z,-2.37
2023-02-18T04:13:11.227Z,-2.35
2023-02-18T04:15:39.824Z,-2.34
2023-02-18T04:18:08.901Z,-2.32
2023-02-18T04:20:38.124Z,-2.30
2023-02-18T04:23:06.830Z,-2.29
2023-02-18T04:25:35.627Z,-2.28
2023-02-18T04:28:05.702Z,-2.26
2023-02-18T04:30:34.537Z,-2.24
2023-02-18T04:33:05.587Z,-2.22
2023-02-18T04:35:34.424Z,-2.21
2023-02-18T04:38:05.546Z,-2.21
2023-02-18T04:40:34.588Z,-2.20
2023-02-18T04:43:03.540Z,-2.20
2023-02-18T04:45:32.289Z,-2.18
2023-02-18T04:48:01.231Z,-2.18
2023-02-18T04:50:30.246Z,-2.16
2023-02-18T04:52:58.743Z,-2.15
2023-02-18T04:55:27.402Z,-2.14
2023-02-18T04:57:55.874Z,-2.12
2023-02-18T05:00:24.369Z,-2.10
2023-02-18T05:02:52.935Z,-2.09
2023-02-18T05:05:21.878Z,-2.07
2023-02-18T05:07:50.464Z,-2.06
2023-02-18T05:10:21.045Z,-2.05
2023-02-18T05:12:49.591Z,-2.03
2023-02-18T05:15:18.746Z,-2.01
2023-02-18T05:17:49.996Z,-1.99
2023-02-18T05:20:19.313Z,-1.98
2023-02-18T05:22:50.388Z,-1.96
2023-02-18T05:25:19.776Z,-1.95
2023-02-18T05:27:50.581Z,-1.94
2023-02-18T05:30:19.347Z,-1.92
2023-02-18T05:32:47.842Z,-1.91
2023-02-18T05:35:16.540Z,-1.90
2023-02-18T05:37:45.501Z,-1.88
2023-02-18T05:40:14.673Z,-1.85
2023-02-18T05:42:43.288Z,-1.83
2023-02-18T05:45:11.904Z,-1.83
2023-02-18T05:47:40.720Z,-1.82
2023-02-18T05:50:10.829Z,-1.81
2023-02-18T05:52:39.723Z,-1.80
2023-02-18T05:55:09.054Z,-1.78
2023-02-18T05:57:38.344Z,-1.76
2023-02-18T06:00:09.567Z,-1.75
2023-02-18T06:02:38.808Z,-1.72
2023-02-18T06:05:07.936Z,-1.72
2023-02-18T06:07:36.659Z,-1.71
2023-02-18T06:10:06.356Z,-1.70
2023-02-18T06:12:38.239Z,-1.69
2023-02-18T06:15:07.142Z,-1.68
2023-02-18T06:17:35.994Z,-1.68
2023-02-18T06:20:05.172Z,-1.66
2023-02-18T06:22:33.859Z,-1.66
2023-02-18T06:25:02.416Z,-1.64
2023-02-18T06:27:31.721Z,-1.62
2023-02-18T06:30:00.634Z,-1.59
2023-02-18T06:32:29.718Z,-1.56
2023-02-18T06:34:58.851Z,-1.55
2023-02-18T06:37:28.403Z,-1.53
2023-02-18T06:39:57.366Z,-1.49
2023-02-18T06:42:26.255Z,-1.46
2023-02-18T06:44:55.863Z,-1.42
2023-02-18T06:47:24.580Z,-1.39
2023-02-18T06:49:53.253Z,-1.36
2023-02-18T06:52:22.055Z,-1.34
2023-02-18T06:54:53.119Z,-1.31
2023-02-18T06:57:21.359Z,-1.28
2023-02-18T06:59:49.626Z,-1.27
2023-02-18T07:02:17.971Z,-1.25
2023-02-18T07:04:46.869Z,-1.23
2023-02-18T07:07:17.814Z,-1.19
2023-02-18T07:09:46.294Z,-1.15
2023-02-18T07:12:14.709Z,-1.11
2023-02-18T07:14:46.927Z,-1.06
2023-02-18T07:17:15.702Z,-1.04
2023-02-18T07:19:44.355Z,-1.04
2023-02-18T07:22:14.245Z,-1.02
2023-02-18T07:24:42.969Z,-1.00
2023-02-18T07:27:11.716Z,-0.99
2023-02-18T07:29:40.475Z,-0.98
2023-02-18T07:32:10.313Z,-0.97
2023-02-18T07:34:39.722Z,-1.00
2023-02-18T07:37:09.775Z,-1.00
2023-02-18T07:39:42.504Z,-1.00
2023-02-18T07:42:12.057Z,-0.99
2023-02-18T07:44:41.324Z,-0.98
2023-02-18T07:47:13.104Z,-0.98
2023-02-18T07:49:41.681Z,-0.97
2023-02-18T07:52:11.833Z,-0.96
2023-02-18T07:54:41.708Z,-0.95
2023-02-18T07:57:10.714Z,-0.92
2023-02-18T07:59:39.370Z,-0.90
2023-02-18T08:02:15.446Z,-0.88
2023-02-18T08:04:44.049Z,-0.85
2023-02-18T08:07:15.098Z,-0.82
2023-02-18T08:09:43.726Z,-0.79
2023-02-18T08:12:12.441Z,-0.74
2023-02-18T08:14:42.660Z,-0.68
2023-02-18T08:17:13.435Z,-0.62
2023-02-18T08:19:42.263Z,-0.60
2023-02-18T08:22:10.868Z,-0.60
2023-02-18T08:24:39.426Z,-0.60
2023-02-18T08:27:08.506Z,-0.60
2023-02-18T08:29:37.495Z,-0.59
2023-02-18T08:32:06.508Z,-0.59
2023-02-18T08:34:36.432Z,-0.57
2023-02-18T08:37:05.242Z,-0.54
2023-02-18T08:39:39.614Z,-0.53
2023-02-18T08:42:08.978Z,-0.53
2023-02-18T08:44:37.616Z,-0.54
2023-02-18T08:48:18.373Z,-0.53
2023-02-18T08:49:58.229Z,-0.50
2023-02-18T08:52:27.273Z,-0.49
2023-02-18T08:54:55.769Z,-0.51
2023-02-18T08:57:24.720Z,-0.52
2023-02-18T08:59:53.315Z,-0.54
2023-02-18T09:02:22.709Z,-0.55
2023-02-18T09:04:51.534Z,-0.55
2023-02-18T09:07:20.630Z,-0.54
2023-02-18T09:09:49.747Z,-0.55
2023-02-18T09:12:21.254Z,-0.55
2023-02-18T09:14:49.823Z,-0.54
2023-02-18T09:17:18.419Z,-0.51
2023-02-18T09:19:49.701Z,-0.49
2023-02-18T09:22:18.690Z,-0.48
2023-02-18T09:24:47.667Z,-0.46
2023-02-18T09:27:16.392Z,-0.46
2023-02-18T09:29:45.266Z,-0.45
2023-02-18T09:32:19.976Z,-0.44
2023-02-18T09:34:55.975Z,-0.42
2023-02-18T09:37:25.194Z,-0.40
2023-02-18T09:39:58.127Z,-0.39
2023-02-18T09:42:32.684Z,-0.38
2023-02-18T09:45:03.154Z,-0.36
2023-02-18T09:47:37.880Z,-0.35
2023-02-18T09:50:20.988Z,-0.33
2023-02-18T09:52:49.521Z,-0.31
2023-02-18T09:55:22.741Z,-0.30
2023-02-18T09:57:53.809Z,-0.27
2023-02-18T10:00:31.592Z,-0.23
2023-02-18T10:03:24.672Z,-0.20
2023-02-18T10:05:56.734Z,-0.17
2023-02-18T10:08:30.032Z,-0.14
2023-02-18T10:11:02.093Z,-0.11
2023-02-18T10:13:33.498Z,-0.09
2023-02-18T10:16:02.639Z,-0.08
2023-02-18T10:18:33.957Z,-0.08
2023-02-18T10:21:08.261Z,-0.07
2023-02-18T10:24:06.134Z,-0.06
2023-02-18T10:26:41.326Z,-0.04
2023-02-18T10:29:15.734Z,-0.01
2023-02-18T10:31:51.643Z,0.02
2023-02-18T10:34:41.495Z,0.04
2023-02-18T10:37:32.985Z,0.04
2023-02-18T10:40:35.992Z,0.04
2023-02-18T10:43:23.510Z,0.03
2023-02-18T10:46:13.268Z,0.05
2023-02-18T10:48:54.191Z,0.09
2023-02-18T10:51:25.133Z,0.09
2023-02-18T10:53:53.791Z,0.11
2023-02-18T10:56:43.769Z,0.13
2023-02-18T10:59:13.644Z,0.16
2023-02-18T11:01:43.137Z,0.20
2023-02-18T11:04:20.309Z,0.26
2023-02-18T11:06:50.099Z,0.29
2023-02-18T11:09:26.826Z,0.31
2023-02-18T11:12:08.612Z,0.32
2023-02-18T11:14:43.561Z,0.34
2023-02-18T11:17:20.126Z,0.38
2023-02-18T11:20:02.083Z,0.41
2023-02-18T11:22:33.393Z,0.44
2023-02-18T11:25:03.827Z,0.45
2023-02-18T11:27:40.297Z,0.48
2023-02-18T11:30:24.368Z,0.50
2023-02-18T11:32:56.670Z,0.54
2023-02-18T11:35:26.432Z,0.57
2023-02-18T11:37:57.846Z,0.59
2023-02-18T11:40:34.540Z,0.61
2023-02-18T11:43:04.917Z,0.63
2023-02-18T11:45:34.335Z,0.67
2023-02-18T11:48:08.596Z,0.72
2023-02-18T11:50:37.290Z,0.77
2023-02-18T11:53:28.000Z,0.83
2023-02-18T11:55:58.973Z,0.91
2023-02-18T11:58:39.163Z,0.98
2023-02-18T12:01:14.806Z,1.06
2023-02-18T12:03:49.190Z,1.11
2023-02-18T12:06:33.919Z,1.16
2023-02-18T12:09:12.809Z,1.20
2023-02-18T12:11:43.679Z,1.24
2023-02-18T12:14:22.152Z,1.28
2023-02-18T12:17:15.584Z,1.35
2023-02-18T12:20:00.823Z,1.40
2023-02-18T12:22:45.955Z,1.44
2023-02-18T12:25:39.885Z,1.49
2023-02-18T12:28:43.693Z,1.55
2023-02-18T12:31:21.267Z,1.60
2023-02-18T12:34:12.461Z,1.65
2023-02-18T12:36:41.282Z,1.71
2023-02-18T12:39:18.836Z,1.77
2023-02-18T12:41:54.238Z,1.83
2023-02-18T12:44:30.128Z,1.90
2023-02-18T12:47:06.124Z,1.96
2023-02-18T12:50:13.019Z,2.04
2023-02-18T12:53:10.043Z,2.18
2023-02-18T12:55:45.202Z,2.37
2023-02-18T12:58:28.570Z,2.53
2023-02-18T13:00:57.259Z,2.63
2023-02-18T13:04:04.139Z,2.65
2023-02-18T13:06:45.144Z,2.64
2023-02-18T13:09:22.969Z,2.63
2023-02-18T13:12:07.284Z,2.63
2023-02-18T13:14:43.770Z,2.62
2023-02-18T13:17:12.531Z,2.62
2023-02-18T13:20:13.731Z,2.63
2023-02-18T13:22:42.696Z,2.65
2023-02-18T13:25:14.880Z,2.66
2023-02-18T13:28:29.147Z,2.65
2023-02-18T13:31:13.594Z,2.66
2023-02-18T13:34:04.754Z,2.68
2023-02-18T13:37:00.245Z,2.77
2023-02-18T13:39:29.888Z,2.95
2023-02-18T13:42:22.962Z,3.10
2023-02-18T13:44:57.939Z,3.31
2023-02-18T13:47:43.107Z,3.60
2023-02-18T13:50:26.505Z,3.89
2023-02-18T13:53:00.729Z,4.14
2023-02-18T13:55:39.790Z,4.29
2023-02-18T13:58:14.695Z,4.39
2023-02-18T14:00:50.294Z,4.44
2023-02-18T14:03:22.248Z,4.48
2023-02-18T14:05:53.148Z,4.52
2023-02-18T14:08:34.949Z,4.55
2023-02-18T14:11:14.116Z,4.58
2023-02-18T14:13:47.752Z,4.59
2023-02-18T14:16:19.085Z,4.62
2023-02-18T14:18:56.398Z,4.63
2023-02-18T14:21:37.274Z,4.65
2023-02-18T14:24:07.877Z,4.67
2023-02-18T14:26:39.535Z,4.71
2023-02-18T14:29:12.945Z,4.71
2023-02-18T14:31:48.927Z,4.70
2023-02-18T14:34:39.335Z,4.68
2023-02-18T14:37:17.694Z,4.52
2023-02-18T14:39:47.554Z,4.28
2023-02-18T14:42:38.834Z,4.06
2023-02-18T14:45:31.352Z,3.83
2023-02-18T14:48:24.481Z,3.66
2023-02-18T14:50:53.201Z,3.54
2023-02-18T14:53:23.676Z,3.46
2023-02-18T14:55:55.708Z,3.39
2023-02-18T14:58:44.888Z,3.32
2023-02-18T15:01:31.528Z,3.26
2023-02-18T15:04:01.116Z,3.20
2023-02-18T15:06:36.333Z,3.16
2023-02-18T15:09:15.981Z,3.12
2023-02-18T15:12:13.108Z,3.09
2023-02-18T15:14:42.901Z,3.05
2023-02-18T15:17:35.584Z,3.03
2023-02-18T15:20:06.225Z,3.01
2023-02-18T15:22:39.886Z,3.01
2023-02-18T15:25:14.122Z,3.03
2023-02-18T15:27:46.301Z,3.07
2023-02-18T15:30:30.005Z,3.10
2023-02-18T15:33:02.044Z,3.10
2023-02-18T15:35:33.430Z,3.10
2023-02-18T15:38:02.470Z,3.08
2023-02-18T15:40:32.379Z,3.04
2023-02-18T15:43:01.713Z,3.01
2023-02-18T15:45:35.389Z,2.97
2023-02-18T15:48:04.896Z,2.93
2023-02-18T15:50:38.997Z,2.88
2023-02-18T15:53:14.335Z,2.83
2023-02-18T15:55:46.080Z,2.79
2023-02-18T15:58:22.445Z,2.75
2023-02-18T16:00:56.221Z,2.72
2023-02-18T16:03:25.545Z,2.69
2023-02-18T16:06:11.443Z,2.66
2023-02-18T16:08:41.304Z,2.62
2023-02-18T16:11:12.527Z,2.59
2023-02-18T16:13:47.880Z,2.54
2023-02-18T16:16:26.394Z,2.48
2023-02-18T16:18:56.576Z,2.44
2023-02-18T16:21:38.504Z,2.40
2023-02-18T16:24:27.275Z,2.36
2023-02-18T16:26:59.844Z,2.32
2023-02-18T16:29:42.057Z,2.30
2023-02-18T16:32:12.062Z,2.28
2023-02-18T16:34:42.145Z,2.27
2023-02-18T16:37:29.432Z,2.28
2023-02-18T16:39:58.616Z,2.30
2023-02-18T16:42:27.982Z,2.34
2023-02-18T16:44:56.770Z,2.37
2023-02-18T16:47:25.519Z,2.41
2023-02-18T16:49:55.740Z,2.43
2023-02-18T16:52:24.444Z,2.44
2023-02-18T16:54:54.732Z,2.45
2023-02-18T16:57:23.985Z,2.46
2023-02-18T16:59:52.884Z,2.48
2023-02-18T17:02:23.979Z,2.49
2023-02-18T17:04:57.793Z,2.50
2023-02-18T17:07:26.949Z,2.50
2023-02-18T17:09:55.699Z,2.50
2023-02-18T17:12:25.176Z,2.50
2023-02-18T17:14:54.329Z,2.49
2023-02-18T17:17:23.911Z,2.48
2023-02-18T17:19:54.097Z,2.49
2023-02-18T17:22:23.253Z,2.49
2023-02-18T17:24:51.885Z,2.49
2023-02-18T17:27:21.693Z,2.47
2023-02-18T17:29:50.794Z,2.43
2023-02-18T17:32:23.074Z,2.40
2023-02-18T17:34:54.474Z,2.40
2023-02-18T17:37:23.395Z,2.41
2023-02-18T17:39:52.886Z,2.42
2023-02-18T17:42:21.952Z,2.41
2023-02-18T17:44:51.861Z,2.41
2023-02-18T17:47:23.530Z,2.40
2023-02-18T17:49:52.512Z,2.39
2023-02-18T17:52:29.997Z,2.39
2023-02-18T17:54:58.892Z,2.39
2023-02-18T17:57:27.713Z,2.40
2023-02-18T17:59:58.386Z,2.40
2023-02-18T18:02:27.997Z,2.42
2023-02-18T18:04:56.740Z,2.42
2023-02-18T18:07:25.640Z,2.42
2023-02-18T18:09:55.685Z,2.45
2023-02-18T18:12:31.468Z,2.46
2023-02-18T18:15:02.052Z,2.45
2023-02-18T18:17:31.163Z,2.45
2023-02-18T18:20:00.231Z,2.43
2023-02-18T18:22:30.036Z,2.44
2023-02-18T18:24:58.933Z,2.43
2023-02-18T18:27:29.411Z,2.41
2023-02-18T18:29:59.281Z,2.39
2023-02-18T18:32:29.134Z,2.40
2023-02-18T18:34:58.571Z,2.40
2023-02-18T18:37:27.529Z,2.40
2023-02-18T18:39:56.467Z,2.39
2023-02-18T18:42:25.223Z,2.37
2023-02-18T18:44:54.402Z,2.35
2023-02-18T18:47:23.261Z,2.33
2023-02-18T18:49:52.748Z,2.33
2023-02-18T18:52:22.123Z,2.32
2023-02-18T18:54:50.723Z,2.31
2023-02-18T18:57:19.599Z,2.30
2023-02-18T18:59:48.458Z,2.28
2023-02-18T19:02:18.070Z,2.29
2023-02-18T19:04:51.598Z,2.29
2023-02-18T19:07:20.821Z,2.29
2023-02-18T19:09:49.968Z,2.29
2023-02-18T19:12:18.744Z,2.28
2023-02-18T19:14:47.785Z,2.26
2023-02-18T19:17:20.845Z,2.24
2023-02-18T19:19:49.669Z,2.24
2023-02-18T19:22:19.166Z,2.23
2023-02-18T19:24:48.076Z,2.19
2023-02-18T19:27:17.535Z,2.15
2023-02-18T19:29:48.814Z,2.10
2023-02-18T19:32:18.617Z,2.08
2023-02-18T19:34:49.219Z,2.06
2023-02-18T19:37:19.399Z,2.05
2023-02-18T19:39:48.599Z,2.04
2023-02-18T19:42:20.486Z,2.03
2023-02-18T19:44:49.198Z,2.03
2023-02-18T19:47:17.871Z,2.03
2023-02-18T19:49:48.165Z,2.02
2023-02-18T19:52:20.370Z,2.02
2023-02-18T19:54:49.189Z,2.01
2023-02-18T19:57:18.349Z,2.00
2023-02-18T19:59:47.130Z,1.99
2023-02-18T20:02:21.684Z,1.96
2023-02-18T20:04:50.787Z,1.95
2023-02-18T20:07:22.057Z,1.93
2023-02-18T20:09:53.725Z,1.91
2023-02-18T20:12:26.369Z,1.90
2023-02-18T20:14:55.803Z,1.89
2023-02-18T20:17:24.660Z,1.87
2023-02-18T20:19:53.502Z,1.87
2023-02-18T20:22:22.369Z,1.86
2023-02-18T20:24:53.272Z,1.87
2023-02-18T20:27:22.168Z,1.86
2023-02-18T20:29:51.743Z,1.84
2023-02-18T20:32:20.728Z,1.81
2023-02-18T20:34:49.733Z,1.80
2023-02-18T20:37:19.849Z,1.79
2023-02-18T20:39:48.883Z,1.76
2023-02-18T20:42:17.972Z,1.75
2023-02-18T20:44:47.674Z,1.71
2023-02-18T20:47:18.101Z,1.68
2023-02-18T20:49:47.023Z,1.63
2023-02-18T20:52:16.128Z,1.58
2023-02-18T20:54:44.704Z,1.52
2023-02-18T20:57:13.248Z,1.46
2023-02-18T20:59:42.169Z,1.42
2023-02-18T21:02:14.439Z,1.37
2023-02-18T21:04:45.403Z,1.31
2023-02-18T21:07:13.943Z,1.23
2023-02-18T21:09:44.230Z,1.18
2023-02-18T21:12:12.956Z,1.13
2023-02-18T21:14:42.095Z,1.08
2023-02-18T21:17:14.297Z,1.03
2023-02-18T21:19:43.348Z,0.99
2023-02-18T21:22:12.148Z,0.94
2023-02-18T21:24:40.715Z,0.92
2023-02-18T21:27:10.737Z,0.91
2023-02-18T21:29:39.722Z,0.91
2023-02-18T21:32:08.291Z,0.92
2023-02-18T21:34:40.107Z,0.94
2023-02-18T21:37:09.266Z,0.94
2023-02-18T21:39:38.148Z,0.97
2023-02-18T21:42:06.964Z,1.00
2023-02-18T21:44:42.366Z,1.03
2023-02-18T21:47:12.186Z,1.06
2023-02-18T21:49:41.038Z,1.08
2023-02-18T21:52:10.050Z,1.10
2023-02-18T21:54:40.496Z,1.11
2023-02-18T21:57:14.704Z,1.13
2023-02-18T21:59:45.446Z,1.15
2023-02-18T22:02:21.841Z,1.15
2023-02-18T22:04:50.431Z,1.14
2023-02-18T22:07:19.426Z,1.13
2023-02-18T22:09:49.129Z,1.13
2023-02-18T22:12:21.827Z,1.14
2023-02-18T22:14:50.279Z,1.14
2023-02-18T22:17:19.680Z,1.15
2023-02-18T22:19:51.043Z,1.17
2023-02-18T22:22:20.048Z,1.17
2023-02-18T22:24:52.180Z,1.17
2023-02-18T22:27:20.678Z,1.16
2023-02-18T22:29:51.132Z,1.17
2023-02-18T22:32:20.441Z,1.19
2023-02-18T22:34:49.283Z,1.19
2023-02-18T22:37:18.196Z,1.18
2023-02-18T22:39:46.668Z,1.19
2023-02-18T22:42:16.244Z,1.19
2023-02-18T22:44:44.786Z,1.20
2023-02-18T22:47:13.368Z,1.20
2023-02-18T22:49:42.817Z,1.20
2023-02-18T22:52:11.410Z,1.18
2023-02-18T22:54:40.534Z,1.18
2023-02-18T22:57:09.577Z,1.18
2023-02-18T22:59:39.334Z,1.19
2023-02-18T23:02:07.948Z,1.20
2023-02-18T23:04:39.152Z,1.20
2023-02-18T23:07:07.736Z,1.20
2023-02-18T23:09:36.526Z,1.20
2023-02-18T23:12:05.746Z,1.22
2023-02-18T23:14:36.838Z,1.23
2023-02-18T23:17:14.872Z,1.23
2023-02-18T23:19:51.567Z,1.24
2023-02-18T23:22:28.644Z,1.25
2023-02-18T23:24:57.292Z,1.24
2023-02-18T23:27:27.675Z,1.22
2023-02-18T23:29:56.634Z,1.19
2023-02-18T23:32:26.059Z,1.17
2023-02-18T23:34:55.157Z,1.15
2023-02-18T23:37:44.208Z,1.13
2023-02-18T23:40:15.009Z,1.12
2023-02-18T23:42:43.780Z,1.10
2023-02-18T23:45:12.838Z,1.11
2023-02-18T23:47:45.516Z,1.11
2023-02-18T23:50:17.682Z,1.11
2023-02-18T23:52:49.057Z,1.12
2023-02-18T23:55:17.881Z,1.11
2023-02-18T23:57:46.836Z,1.12
